sensor_id;sensor_type;location;lat;lon;timestamp;P1;durP1;ratioP1;P2;durP2;ratioP2
18999;SDS011;9633;50.980;13.850;2022-11-20T00:00:56;26.65;;;13.50;;
18999;SDS011;9633;50.980;13.850;2022-11-20T00:02:28;27.42;;;13.98;;
18999;SDS011;9633;50.980;13.850;2022-11-20T00:04:01;28.05;;;14.20;;
18999;SDS011;9633;50.980;13.850;2022-11-20T00:05:34;26.13;;;13.20;;
18999;SDS011;9633;50.980;13.850;2022-11-20T00:07:07;26.67;;;13.48;;
18999;SDS011;9633;50.980;13.850;2022-11-20T00:08:41;29.02;;;13.40;;
18999;SDS011;9633;50.980;13.850;2022-11-20T00:10:14;25.48;;;12.95;;
18999;SDS011;9633;50.980;13.850;2022-11-20T00:11:49;26.35;;;13.23;;
18999;SDS011;9633;50.980;13.850;2022-11-20T00:13:22;28.00;;;13.10;;
18999;SDS011;9633;50.980;13.850;2022-11-20T00:14:55;24.65;;;12.88;;
18999;SDS011;9633;50.980;13.850;2022-11-20T00:16:29;27.90;;;14.32;;
18999;SDS011;9633;50.980;13.850;2022-11-20T00:18:04;25.80;;;13.50;;
18999;SDS011;9633;50.980;13.850;2022-11-20T00:19:37;25.83;;;12.15;;
18999;SDS011;9633;50.980;13.850;2022-11-20T00:21:11;22.67;;;12.38;;
18999;SDS011;9633;50.980;13.850;2022-11-20T00:22:46;23.05;;;11.82;;
18999;SDS011;9633;50.980;13.850;2022-11-20T00:24:19;24.23;;;12.20;;
18999;SDS011;9633;50.980;13.850;2022-11-20T00:25:53;23.25;;;11.75;;
18999;SDS011;9633;50.980;13.850;2022-11-20T00:27:28;22.88;;;11.65;;
18999;SDS011;9633;50.980;13.850;2022-11-20T00:29:01;21.52;;;12.35;;
18999;SDS011;9633;50.980;13.850;2022-11-20T00:30:34;23.02;;;12.70;;
18999;SDS011;9633;50.980;13.850;2022-11-20T00:32:07;21.50;;;11.40;;
18999;SDS011;9633;50.980;13.850;2022-11-20T00:33:41;24.02;;;12.60;;
18999;SDS011;9633;50.980;13.850;2022-11-20T00:35:14;23.10;;;11.52;;
18999;SDS011;9633;50.980;13.850;2022-11-20T00:36:48;18.92;;;10.30;;
18999;SDS011;9633;50.980;13.850;2022-11-20T00:38:21;24.13;;;11.38;;
18999;SDS011;9633;50.980;13.850;2022-11-20T00:39:54;23.05;;;11.15;;
18999;SDS011;9633;50.980;13.850;2022-11-20T00:41:28;21.70;;;11.10;;
18999;SDS011;9633;50.980;13.850;2022-11-20T00:43:02;23.00;;;10.80;;
18999;SDS011;9633;50.980;13.850;2022-11-20T00:44:35;21.65;;;11.38;;
18999;SDS011;9633;50.980;13.850;2022-11-20T00:46:08;24.45;;;11.45;;
18999;SDS011;9633;50.980;13.850;2022-11-20T00:47:41;21.92;;;11.80;;
18999;SDS011;9633;50.980;13.850;2022-11-20T00:49:14;24.42;;;12.20;;
18999;SDS011;9633;50.980;13.850;2022-11-20T00:50:48;24.23;;;11.85;;
18999;SDS011;9633;50.980;13.850;2022-11-20T00:52:20;20.77;;;11.25;;
18999;SDS011;9633;50.980;13.850;2022-11-20T00:53:54;24.38;;;11.98;;
18999;SDS011;9633;50.980;13.850;2022-11-20T00:55:27;24.35;;;11.68;;
18999;SDS011;9633;50.980;13.850;2022-11-20T00:57:00;22.33;;;11.80;;
18999;SDS011;9633;50.980;13.850;2022-11-20T00:58:36;22.75;;;11.63;;
18999;SDS011;9633;50.980;13.850;2022-11-20T01:00:10;22.05;;;11.05;;
18999;SDS011;9633;50.980;13.850;2022-11-20T01:01:43;23.15;;;11.05;;
18999;SDS011;9633;50.980;13.850;2022-11-20T01:03:16;24.65;;;12.00;;
18999;SDS011;9633;50.980;13.850;2022-11-20T01:04:56;20.85;;;10.57;;
18999;SDS011;9633;50.980;13.850;2022-11-20T01:06:29;21.85;;;11.05;;
18999;SDS011;9633;50.980;13.850;2022-11-20T01:08:04;19.77;;;10.18;;
18999;SDS011;9633;50.980;13.850;2022-11-20T01:09:37;21.45;;;10.75;;
18999;SDS011;9633;50.980;13.850;2022-11-20T01:11:11;18.52;;;10.20;;
18999;SDS011;9633;50.980;13.850;2022-11-20T01:12:47;20.42;;;10.57;;
18999;SDS011;9633;50.980;13.850;2022-11-20T01:14:41;19.50;;;10.88;;
18999;SDS011;9633;50.980;13.850;2022-11-20T01:16:14;20.25;;;10.43;;
18999;SDS011;9633;50.980;13.850;2022-11-20T01:17:49;22.58;;;11.95;;
18999;SDS011;9633;50.980;13.850;2022-11-20T01:19:22;23.13;;;11.07;;
18999;SDS011;9633;50.980;13.850;2022-11-20T01:20:59;22.95;;;11.07;;
18999;SDS011;9633;50.980;13.850;2022-11-20T01:22:33;20.25;;;10.45;;
18999;SDS011;9633;50.980;13.850;2022-11-20T01:24:07;20.17;;;10.18;;
18999;SDS011;9633;50.980;13.850;2022-11-20T01:25:42;19.35;;;10.45;;
18999;SDS011;9633;50.980;13.850;2022-11-20T01:27:15;18.05;;;9.93;;
18999;SDS011;9633;50.980;13.850;2022-11-20T01:28:48;22.73;;;10.95;;
18999;SDS011;9633;50.980;13.850;2022-11-20T01:30:23;21.88;;;10.90;;
18999;SDS011;9633;50.980;13.850;2022-11-20T01:31:56;19.20;;;10.05;;
18999;SDS011;9633;50.980;13.850;2022-11-20T01:33:29;19.80;;;10.73;;
18999;SDS011;9633;50.980;13.850;2022-11-20T01:35:02;21.17;;;10.45;;
18999;SDS011;9633;50.980;13.850;2022-11-20T01:36:36;21.58;;;11.35;;
18999;SDS011;9633;50.980;13.850;2022-11-20T01:38:10;22.27;;;11.02;;
18999;SDS011;9633;50.980;13.850;2022-11-20T01:39:43;22.88;;;11.32;;
18999;SDS011;9633;50.980;13.850;2022-11-20T01:41:16;22.10;;;11.23;;
18999;SDS011;9633;50.980;13.850;2022-11-20T01:43:09;23.40;;;11.68;;
18999;SDS011;9633;50.980;13.850;2022-11-20T01:44:57;24.00;;;10.70;;
18999;SDS011;9633;50.980;13.850;2022-11-20T01:46:32;18.65;;;9.85;;
18999;SDS011;9633;50.980;13.850;2022-11-20T01:48:09;19.15;;;10.25;;
18999;SDS011;9633;50.980;13.850;2022-11-20T01:49:42;23.02;;;10.98;;
18999;SDS011;9633;50.980;13.850;2022-11-20T01:51:21;22.52;;;11.32;;
18999;SDS011;9633;50.980;13.850;2022-11-20T01:52:59;25.95;;;11.27;;
18999;SDS011;9633;50.980;13.850;2022-11-20T01:54:35;20.92;;;10.95;;
18999;SDS011;9633;50.980;13.850;2022-11-20T01:56:12;20.08;;;9.88;;
18999;SDS011;9633;50.980;13.850;2022-11-20T01:57:46;19.70;;;10.52;;
18999;SDS011;9633;50.980;13.850;2022-11-20T01:59:21;23.23;;;10.80;;
18999;SDS011;9633;50.980;13.850;2022-11-20T02:00:58;19.80;;;9.90;;
18999;SDS011;9633;50.980;13.850;2022-11-20T02:02:31;22.45;;;11.02;;
18999;SDS011;9633;50.980;13.850;2022-11-20T02:04:05;19.10;;;11.00;;
18999;SDS011;9633;50.980;13.850;2022-11-20T02:05:41;18.50;;;10.35;;
18999;SDS011;9633;50.980;13.850;2022-11-20T02:07:17;20.45;;;10.30;;
18999;SDS011;9633;50.980;13.850;2022-11-20T02:08:52;18.10;;;9.68;;
18999;SDS011;9633;50.980;13.850;2022-11-20T02:10:26;20.52;;;9.57;;
18999;SDS011;9633;50.980;13.850;2022-11-20T02:11:59;19.45;;;9.90;;
18999;SDS011;9633;50.980;13.850;2022-11-20T02:13:33;17.33;;;9.35;;
18999;SDS011;9633;50.980;13.850;2022-11-20T02:15:14;17.90;;;9.52;;
18999;SDS011;9633;50.980;13.850;2022-11-20T02:16:47;19.05;;;10.02;;
18999;SDS011;9633;50.980;13.850;2022-11-20T02:18:23;16.45;;;9.70;;
18999;SDS011;9633;50.980;13.850;2022-11-20T02:19:57;16.45;;;8.95;;
18999;SDS011;9633;50.980;13.850;2022-11-20T02:21:31;16.63;;;8.85;;
18999;SDS011;9633;50.980;13.850;2022-11-20T02:23:10;16.60;;;8.80;;
18999;SDS011;9633;50.980;13.850;2022-11-20T02:24:48;15.38;;;8.27;;
18999;SDS011;9633;50.980;13.850;2022-11-20T02:26:23;15.55;;;8.63;;
18999;SDS011;9633;50.980;13.850;2022-11-20T02:27:57;15.48;;;9.10;;
18999;SDS011;9633;50.980;13.850;2022-11-20T02:29:31;16.63;;;8.90;;
18999;SDS011;9633;50.980;13.850;2022-11-20T02:31:07;14.90;;;8.27;;
18999;SDS011;9633;50.980;13.850;2022-11-20T02:32:40;15.95;;;8.32;;
18999;SDS011;9633;50.980;13.850;2022-11-20T02:34:12;17.40;;;8.82;;
18999;SDS011;9633;50.980;13.850;2022-11-20T02:35:46;16.60;;;9.13;;
18999;SDS011;9633;50.980;13.850;2022-11-20T02:37:19;16.65;;;8.75;;
18999;SDS011;9633;50.980;13.850;2022-11-20T02:38:53;16.58;;;8.63;;
18999;SDS011;9633;50.980;13.850;2022-11-20T02:40:27;16.98;;;7.97;;
18999;SDS011;9633;50.980;13.850;2022-11-20T02:42:00;16.48;;;8.35;;
18999;SDS011;9633;50.980;13.850;2022-11-20T02:43:34;15.68;;;8.25;;
18999;SDS011;9633;50.980;13.850;2022-11-20T02:45:07;15.32;;;8.55;;
18999;SDS011;9633;50.980;13.850;2022-11-20T02:46:41;17.48;;;8.70;;
18999;SDS011;9633;50.980;13.850;2022-11-20T02:48:14;15.88;;;8.15;;
18999;SDS011;9633;50.980;13.850;2022-11-20T02:49:46;16.50;;;8.27;;
18999;SDS011;9633;50.980;13.850;2022-11-20T02:51:19;17.27;;;8.45;;
18999;SDS011;9633;50.980;13.850;2022-11-20T02:52:52;17.73;;;8.35;;
18999;SDS011;9633;50.980;13.850;2022-11-20T02:54:25;15.50;;;8.10;;
18999;SDS011;9633;50.980;13.850;2022-11-20T02:56:00;19.17;;;8.50;;
18999;SDS011;9633;50.980;13.850;2022-11-20T02:57:32;15.18;;;8.13;;
18999;SDS011;9633;50.980;13.850;2022-11-20T02:59:05;17.73;;;8.57;;
18999;SDS011;9633;50.980;13.850;2022-11-20T03:00:38;16.83;;;8.23;;
18999;SDS011;9633;50.980;13.850;2022-11-20T03:02:11;16.90;;;8.35;;
18999;SDS011;9633;50.980;13.850;2022-11-20T03:03:44;15.90;;;8.48;;
18999;SDS011;9633;50.980;13.850;2022-11-20T03:05:19;15.60;;;8.13;;
18999;SDS011;9633;50.980;13.850;2022-11-20T03:06:51;14.60;;;8.00;;
18999;SDS011;9633;50.980;13.850;2022-11-20T03:08:24;15.05;;;8.13;;
18999;SDS011;9633;50.980;13.850;2022-11-20T03:09:56;16.42;;;7.90;;
18999;SDS011;9633;50.980;13.850;2022-11-20T03:11:31;16.50;;;8.60;;
18999;SDS011;9633;50.980;13.850;2022-11-20T03:13:04;19.02;;;8.90;;
18999;SDS011;9633;50.980;13.850;2022-11-20T03:14:36;19.35;;;9.25;;
18999;SDS011;9633;50.980;13.850;2022-11-20T03:16:10;17.35;;;8.70;;
18999;SDS011;9633;50.980;13.850;2022-11-20T03:17:44;16.13;;;8.23;;
18999;SDS011;9633;50.980;13.850;2022-11-20T03:19:17;16.13;;;8.10;;
18999;SDS011;9633;50.980;13.850;2022-11-20T03:20:56;16.55;;;7.93;;
18999;SDS011;9633;50.980;13.850;2022-11-20T03:22:29;15.45;;;8.10;;
18999;SDS011;9633;50.980;13.850;2022-11-20T03:24:03;15.63;;;8.00;;
18999;SDS011;9633;50.980;13.850;2022-11-20T03:25:36;14.85;;;8.35;;
18999;SDS011;9633;50.980;13.850;2022-11-20T03:27:10;15.35;;;7.35;;
18999;SDS011;9633;50.980;13.850;2022-11-20T03:28:45;14.93;;;7.80;;
18999;SDS011;9633;50.980;13.850;2022-11-20T03:30:19;16.90;;;8.13;;
18999;SDS011;9633;50.980;13.850;2022-11-20T03:31:59;17.45;;;8.63;;
18999;SDS011;9633;50.980;13.850;2022-11-20T03:33:32;16.60;;;9.00;;
18999;SDS011;9633;50.980;13.850;2022-11-20T03:35:06;14.95;;;8.13;;
18999;SDS011;9633;50.980;13.850;2022-11-20T03:36:40;17.23;;;9.88;;
18999;SDS011;9633;50.980;13.850;2022-11-20T03:38:14;18.27;;;9.25;;
18999;SDS011;9633;50.980;13.850;2022-11-20T03:39:47;22.25;;;10.07;;
18999;SDS011;9633;50.980;13.850;2022-11-20T03:41:21;22.20;;;10.60;;
18999;SDS011;9633;50.980;13.850;2022-11-20T03:42:57;25.05;;;11.68;;
18999;SDS011;9633;50.980;13.850;2022-11-20T03:44:29;25.95;;;11.90;;
18999;SDS011;9633;50.980;13.850;2022-11-20T03:46:03;22.58;;;10.93;;
18999;SDS011;9633;50.980;13.850;2022-11-20T03:47:36;20.60;;;10.60;;
18999;SDS011;9633;50.980;13.850;2022-11-20T03:49:09;23.77;;;10.30;;
18999;SDS011;9633;50.980;13.850;2022-11-20T03:50:43;21.48;;;9.82;;
18999;SDS011;9633;50.980;13.850;2022-11-20T03:52:15;20.92;;;9.55;;
18999;SDS011;9633;50.980;13.850;2022-11-20T03:53:48;20.33;;;9.82;;
18999;SDS011;9633;50.980;13.850;2022-11-20T03:55:23;20.15;;;9.65;;
18999;SDS011;9633;50.980;13.850;2022-11-20T03:56:56;18.40;;;9.52;;
18999;SDS011;9633;50.980;13.850;2022-11-20T03:58:29;16.35;;;8.43;;
18999;SDS011;9633;50.980;13.850;2022-11-20T04:00:03;17.40;;;8.90;;
18999;SDS011;9633;50.980;13.850;2022-11-20T04:01:37;19.20;;;9.07;;
18999;SDS011;9633;50.980;13.850;2022-11-20T04:03:09;17.75;;;8.45;;
18999;SDS011;9633;50.980;13.850;2022-11-20T04:04:43;17.63;;;8.30;;
18999;SDS011;9633;50.980;13.850;2022-11-20T04:06:18;16.15;;;8.20;;
18999;SDS011;9633;50.980;13.850;2022-11-20T04:07:52;18.17;;;8.45;;
18999;SDS011;9633;50.980;13.850;2022-11-20T04:09:26;16.50;;;8.18;;
18999;SDS011;9633;50.980;13.850;2022-11-20T04:11:07;14.45;;;7.50;;
18999;SDS011;9633;50.980;13.850;2022-11-20T04:12:45;15.57;;;7.90;;
18999;SDS011;9633;50.980;13.850;2022-11-20T04:14:19;15.82;;;7.97;;
18999;SDS011;9633;50.980;13.850;2022-11-20T04:15:51;16.73;;;7.85;;
18999;SDS011;9633;50.980;13.850;2022-11-20T04:17:29;14.50;;;7.95;;
18999;SDS011;9633;50.980;13.850;2022-11-20T04:19:03;16.48;;;8.32;;
18999;SDS011;9633;50.980;13.850;2022-11-20T04:20:38;14.77;;;7.95;;
18999;SDS011;9633;50.980;13.850;2022-11-20T04:22:11;15.60;;;8.20;;
18999;SDS011;9633;50.980;13.850;2022-11-20T04:23:44;14.07;;;7.85;;
18999;SDS011;9633;50.980;13.850;2022-11-20T04:25:17;16.35;;;7.90;;
18999;SDS011;9633;50.980;13.850;2022-11-20T04:26:50;18.02;;;8.27;;
18999;SDS011;9633;50.980;13.850;2022-11-20T04:28:23;18.08;;;8.57;;
18999;SDS011;9633;50.980;13.850;2022-11-20T04:29:58;16.23;;;7.57;;
18999;SDS011;9633;50.980;13.850;2022-11-20T04:31:32;16.92;;;8.38;;
18999;SDS011;9633;50.980;13.850;2022-11-20T04:33:04;16.35;;;8.30;;
18999;SDS011;9633;50.980;13.850;2022-11-20T04:34:38;14.18;;;8.20;;
18999;SDS011;9633;50.980;13.850;2022-11-20T04:36:12;16.95;;;7.50;;
18999;SDS011;9633;50.980;13.850;2022-11-20T04:37:45;15.48;;;7.75;;
18999;SDS011;9633;50.980;13.850;2022-11-20T04:39:19;16.33;;;8.07;;
18999;SDS011;9633;50.980;13.850;2022-11-20T04:40:55;17.63;;;7.97;;
18999;SDS011;9633;50.980;13.850;2022-11-20T04:42:29;14.85;;;7.47;;
18999;SDS011;9633;50.980;13.850;2022-11-20T04:44:02;15.43;;;7.88;;
18999;SDS011;9633;50.980;13.850;2022-11-20T04:45:37;16.23;;;7.72;;
18999;SDS011;9633;50.980;13.850;2022-11-20T04:47:10;15.02;;;7.28;;
18999;SDS011;9633;50.980;13.850;2022-11-20T04:48:44;13.48;;;6.90;;
18999;SDS011;9633;50.980;13.850;2022-11-20T04:50:17;14.80;;;7.10;;
18999;SDS011;9633;50.980;13.850;2022-11-20T04:51:52;11.77;;;6.55;;
18999;SDS011;9633;50.980;13.850;2022-11-20T04:53:25;14.63;;;6.95;;
18999;SDS011;9633;50.980;13.850;2022-11-20T04:54:58;13.75;;;7.18;;
18999;SDS011;9633;50.980;13.850;2022-11-20T04:56:31;15.85;;;7.53;;
18999;SDS011;9633;50.980;13.850;2022-11-20T04:58:04;11.90;;;7.43;;
18999;SDS011;9633;50.980;13.850;2022-11-20T04:59:37;14.10;;;7.28;;
18999;SDS011;9633;50.980;13.850;2022-11-20T05:01:12;12.82;;;6.88;;
18999;SDS011;9633;50.980;13.850;2022-11-20T05:02:47;14.27;;;6.88;;
18999;SDS011;9633;50.980;13.850;2022-11-20T05:04:20;16.20;;;7.22;;
18999;SDS011;9633;50.980;13.850;2022-11-20T05:05:54;13.20;;;6.72;;
18999;SDS011;9633;50.980;13.850;2022-11-20T05:07:26;14.75;;;7.63;;
18999;SDS011;9633;50.980;13.850;2022-11-20T05:08:59;12.93;;;6.97;;
18999;SDS011;9633;50.980;13.850;2022-11-20T05:10:32;13.65;;;7.05;;
18999;SDS011;9633;50.980;13.850;2022-11-20T05:12:06;13.45;;;7.38;;
18999;SDS011;9633;50.980;13.850;2022-11-20T05:13:40;15.88;;;7.22;;
18999;SDS011;9633;50.980;13.850;2022-11-20T05:15:12;17.20;;;7.65;;
18999;SDS011;9633;50.980;13.850;2022-11-20T05:16:47;12.38;;;7.20;;
18999;SDS011;9633;50.980;13.850;2022-11-20T05:18:19;13.63;;;7.18;;
18999;SDS011;9633;50.980;13.850;2022-11-20T05:19:52;14.23;;;6.78;;
18999;SDS011;9633;50.980;13.850;2022-11-20T05:21:25;14.20;;;7.20;;
18999;SDS011;9633;50.980;13.850;2022-11-20T05:22:58;14.07;;;7.07;;
18999;SDS011;9633;50.980;13.850;2022-11-20T05:24:32;12.43;;;6.75;;
18999;SDS011;9633;50.980;13.850;2022-11-20T05:26:05;16.05;;;7.25;;
18999;SDS011;9633;50.980;13.850;2022-11-20T05:27:40;14.48;;;7.13;;
18999;SDS011;9633;50.980;13.850;2022-11-20T05:29:13;14.32;;;6.68;;
18999;SDS011;9633;50.980;13.850;2022-11-20T05:30:47;13.90;;;6.97;;
18999;SDS011;9633;50.980;13.850;2022-11-20T05:32:21;14.98;;;6.90;;
18999;SDS011;9633;50.980;13.850;2022-11-20T05:33:56;12.30;;;6.53;;
18999;SDS011;9633;50.980;13.850;2022-11-20T05:35:29;15.23;;;7.45;;
18999;SDS011;9633;50.980;13.850;2022-11-20T05:37:01;13.15;;;6.85;;
18999;SDS011;9633;50.980;13.850;2022-11-20T05:38:35;14.05;;;7.00;;
18999;SDS011;9633;50.980;13.850;2022-11-20T05:40:08;14.82;;;7.40;;
18999;SDS011;9633;50.980;13.850;2022-11-20T05:41:42;14.85;;;6.88;;
18999;SDS011;9633;50.980;13.850;2022-11-20T05:43:15;15.23;;;7.60;;
18999;SDS011;9633;50.980;13.850;2022-11-20T05:44:47;13.13;;;6.60;;
18999;SDS011;9633;50.980;13.850;2022-11-20T05:46:20;15.20;;;6.68;;
18999;SDS011;9633;50.980;13.850;2022-11-20T05:48:00;12.25;;;6.80;;
18999;SDS011;9633;50.980;13.850;2022-11-20T05:49:33;15.30;;;6.90;;
18999;SDS011;9633;50.980;13.850;2022-11-20T05:51:06;13.98;;;7.28;;
18999;SDS011;9633;50.980;13.850;2022-11-20T05:52:40;13.98;;;7.28;;
18999;SDS011;9633;50.980;13.850;2022-11-20T05:54:13;13.15;;;6.95;;
18999;SDS011;9633;50.980;13.850;2022-11-20T05:55:55;15.18;;;7.60;;
18999;SDS011;9633;50.980;13.850;2022-11-20T05:57:29;14.77;;;6.90;;
18999;SDS011;9633;50.980;13.850;2022-11-20T05:59:03;14.93;;;7.22;;
18999;SDS011;9633;50.980;13.850;2022-11-20T06:00:36;15.52;;;7.57;;
18999;SDS011;9633;50.980;13.850;2022-11-20T06:02:09;15.23;;;7.97;;
18999;SDS011;9633;50.980;13.850;2022-11-20T06:03:44;17.08;;;7.80;;
18999;SDS011;9633;50.980;13.850;2022-11-20T06:05:19;15.98;;;8.05;;
18999;SDS011;9633;50.980;13.850;2022-11-20T06:06:52;11.80;;;6.55;;
18999;SDS011;9633;50.980;13.850;2022-11-20T06:08:25;14.68;;;7.50;;
18999;SDS011;9633;50.980;13.850;2022-11-20T06:09:58;12.80;;;6.88;;
18999;SDS011;9633;50.980;13.850;2022-11-20T06:11:31;15.43;;;7.07;;
18999;SDS011;9633;50.980;13.850;2022-11-20T06:13:04;14.93;;;6.85;;
18999;SDS011;9633;50.980;13.850;2022-11-20T06:14:37;13.02;;;6.63;;
18999;SDS011;9633;50.980;13.850;2022-11-20T06:16:10;15.90;;;7.63;;
18999;SDS011;9633;50.980;13.850;2022-11-20T06:17:45;14.57;;;7.15;;
18999;SDS011;9633;50.980;13.850;2022-11-20T06:19:20;14.05;;;7.22;;
18999;SDS011;9633;50.980;13.850;2022-11-20T06:20:58;14.88;;;7.72;;
18999;SDS011;9633;50.980;13.850;2022-11-20T06:22:32;17.50;;;8.27;;
18999;SDS011;9633;50.980;13.850;2022-11-20T06:24:06;17.05;;;8.02;;
18999;SDS011;9633;50.980;13.850;2022-11-20T06:25:41;19.45;;;9.27;;
18999;SDS011;9633;50.980;13.850;2022-11-20T06:27:15;17.80;;;8.40;;
18999;SDS011;9633;50.980;13.850;2022-11-20T06:28:48;15.95;;;8.27;;
18999;SDS011;9633;50.980;13.850;2022-11-20T06:30:22;17.27;;;8.88;;
18999;SDS011;9633;50.980;13.850;2022-11-20T06:31:55;19.20;;;8.73;;
18999;SDS011;9633;50.980;13.850;2022-11-20T06:33:28;17.65;;;9.00;;
18999;SDS011;9633;50.980;13.850;2022-11-20T06:35:03;16.10;;;8.25;;
18999;SDS011;9633;50.980;13.850;2022-11-20T06:36:37;18.40;;;8.98;;
18999;SDS011;9633;50.980;13.850;2022-11-20T06:38:10;19.17;;;9.52;;
18999;SDS011;9633;50.980;13.850;2022-11-20T06:39:42;19.73;;;9.10;;
18999;SDS011;9633;50.980;13.850;2022-11-20T06:41:16;21.00;;;9.60;;
18999;SDS011;9633;50.980;13.850;2022-11-20T06:42:50;20.20;;;9.95;;
18999;SDS011;9633;50.980;13.850;2022-11-20T06:44:24;22.30;;;10.30;;
18999;SDS011;9633;50.980;13.850;2022-11-20T06:45:58;20.75;;;9.65;;
18999;SDS011;9633;50.980;13.850;2022-11-20T06:47:31;18.88;;;9.35;;
18999;SDS011;9633;50.980;13.850;2022-11-20T06:49:04;20.17;;;9.32;;
18999;SDS011;9633;50.980;13.850;2022-11-20T06:50:39;22.92;;;9.65;;
18999;SDS011;9633;50.980;13.850;2022-11-20T06:52:12;17.02;;;8.18;;
18999;SDS011;9633;50.980;13.850;2022-11-20T06:53:45;18.52;;;9.63;;
18999;SDS011;9633;50.980;13.850;2022-11-20T06:55:18;24.02;;;11.02;;
18999;SDS011;9633;50.980;13.850;2022-11-20T06:56:51;22.58;;;11.02;;
18999;SDS011;9633;50.980;13.850;2022-11-20T06:58:26;21.27;;;11.32;;
18999;SDS011;9633;50.980;13.850;2022-11-20T07:00:00;24.17;;;11.43;;
18999;SDS011;9633;50.980;13.850;2022-11-20T07:01:33;23.95;;;11.75;;
18999;SDS011;9633;50.980;13.850;2022-11-20T07:03:07;21.35;;;10.93;;
18999;SDS011;9633;50.980;13.850;2022-11-20T07:04:41;23.48;;;12.18;;
18999;SDS011;9633;50.980;13.850;2022-11-20T07:06:15;22.13;;;11.52;;
18999;SDS011;9633;50.980;13.850;2022-11-20T07:07:49;25.00;;;12.43;;
18999;SDS011;9633;50.980;13.850;2022-11-20T07:09:22;26.50;;;12.70;;
18999;SDS011;9633;50.980;13.850;2022-11-20T07:10:56;26.85;;;13.73;;
18999;SDS011;9633;50.980;13.850;2022-11-20T07:12:30;31.85;;;15.07;;
18999;SDS011;9633;50.980;13.850;2022-11-20T07:14:04;28.80;;;14.02;;
18999;SDS011;9633;50.980;13.850;2022-11-20T07:15:37;27.45;;;13.23;;
18999;SDS011;9633;50.980;13.850;2022-11-20T07:17:11;22.80;;;12.02;;
18999;SDS011;9633;50.980;13.850;2022-11-20T07:18:44;21.20;;;11.13;;
18999;SDS011;9633;50.980;13.850;2022-11-20T07:20:21;22.95;;;12.00;;
18999;SDS011;9633;50.980;13.850;2022-11-20T07:21:56;20.75;;;11.27;;
18999;SDS011;9633;50.980;13.850;2022-11-20T07:23:29;19.60;;;10.98;;
18999;SDS011;9633;50.980;13.850;2022-11-20T07:25:02;21.90;;;11.43;;
18999;SDS011;9633;50.980;13.850;2022-11-20T07:26:36;28.95;;;12.05;;
18999;SDS011;9633;50.980;13.850;2022-11-20T07:28:09;21.05;;;11.63;;
18999;SDS011;9633;50.980;13.850;2022-11-20T07:29:42;21.50;;;12.10;;
18999;SDS011;9633;50.980;13.850;2022-11-20T07:31:16;22.48;;;11.98;;
18999;SDS011;9633;50.980;13.850;2022-11-20T07:32:50;26.60;;;12.35;;
18999;SDS011;9633;50.980;13.850;2022-11-20T07:34:24;25.65;;;11.82;;
18999;SDS011;9633;50.980;13.850;2022-11-20T07:35:58;21.83;;;11.80;;
18999;SDS011;9633;50.980;13.850;2022-11-20T07:37:34;22.13;;;12.35;;
18999;SDS011;9633;50.980;13.850;2022-11-20T07:39:08;21.33;;;11.45;;
18999;SDS011;9633;50.980;13.850;2022-11-20T07:40:41;21.13;;;11.77;;
18999;SDS011;9633;50.980;13.850;2022-11-20T07:42:14;23.48;;;12.00;;
18999;SDS011;9633;50.980;13.850;2022-11-20T07:43:47;23.65;;;12.68;;
18999;SDS011;9633;50.980;13.850;2022-11-20T07:45:21;21.85;;;12.13;;
18999;SDS011;9633;50.980;13.850;2022-11-20T07:46:55;24.60;;;12.75;;
18999;SDS011;9633;50.980;13.850;2022-11-20T07:48:29;22.98;;;12.57;;
18999;SDS011;9633;50.980;13.850;2022-11-20T07:50:02;22.13;;;12.20;;
18999;SDS011;9633;50.980;13.850;2022-11-20T07:51:35;23.85;;;13.63;;
18999;SDS011;9633;50.980;13.850;2022-11-20T07:53:10;25.20;;;13.82;;
18999;SDS011;9633;50.980;13.850;2022-11-20T07:54:43;25.70;;;14.65;;
18999;SDS011;9633;50.980;13.850;2022-11-20T07:56:16;23.10;;;13.70;;
18999;SDS011;9633;50.980;13.850;2022-11-20T07:57:53;22.58;;;13.98;;
18999;SDS011;9633;50.980;13.850;2022-11-20T07:59:27;24.65;;;14.43;;
18999;SDS011;9633;50.980;13.850;2022-11-20T08:01:03;26.92;;;15.32;;
18999;SDS011;9633;50.980;13.850;2022-11-20T08:02:37;27.45;;;15.48;;
18999;SDS011;9633;50.980;13.850;2022-11-20T08:04:11;25.13;;;14.38;;
18999;SDS011;9633;50.980;13.850;2022-11-20T08:05:46;24.58;;;14.52;;
18999;SDS011;9633;50.980;13.850;2022-11-20T08:07:19;22.98;;;14.15;;
18999;SDS011;9633;50.980;13.850;2022-11-20T08:08:54;24.05;;;15.38;;
18999;SDS011;9633;50.980;13.850;2022-11-20T08:10:27;25.65;;;14.98;;
18999;SDS011;9633;50.980;13.850;2022-11-20T08:12:00;26.90;;;16.10;;
18999;SDS011;9633;50.980;13.850;2022-11-20T08:13:50;30.92;;;18.60;;
18999;SDS011;9633;50.980;13.850;2022-11-20T08:15:41;31.25;;;18.00;;
18999;SDS011;9633;50.980;13.850;2022-11-20T08:17:14;29.55;;;18.15;;
18999;SDS011;9633;50.980;13.850;2022-11-20T08:18:47;38.83;;;25.37;;
18999;SDS011;9633;50.980;13.850;2022-11-20T08:20:20;27.65;;;16.90;;
18999;SDS011;9633;50.980;13.850;2022-11-20T08:21:54;25.27;;;16.97;;
18999;SDS011;9633;50.980;13.850;2022-11-20T08:23:27;25.73;;;15.88;;
18999;SDS011;9633;50.980;13.850;2022-11-20T08:25:03;28.52;;;16.55;;
18999;SDS011;9633;50.980;13.850;2022-11-20T08:26:37;29.45;;;17.67;;
18999;SDS011;9633;50.980;13.850;2022-11-20T08:28:12;28.60;;;17.80;;
18999;SDS011;9633;50.980;13.850;2022-11-20T08:29:52;29.30;;;16.80;;
18999;SDS011;9633;50.980;13.850;2022-11-20T08:31:26;28.23;;;16.40;;
18999;SDS011;9633;50.980;13.850;2022-11-20T08:33:00;25.70;;;16.10;;
18999;SDS011;9633;50.980;13.850;2022-11-20T08:34:34;28.00;;;17.10;;
18999;SDS011;9633;50.980;13.850;2022-11-20T08:36:07;27.80;;;16.90;;
18999;SDS011;9633;50.980;13.850;2022-11-20T08:37:41;27.30;;;16.97;;
18999;SDS011;9633;50.980;13.850;2022-11-20T08:39:14;27.20;;;16.60;;
18999;SDS011;9633;50.980;13.850;2022-11-20T08:40:49;27.23;;;16.73;;
18999;SDS011;9633;50.980;13.850;2022-11-20T08:42:35;25.13;;;16.70;;
18999;SDS011;9633;50.980;13.850;2022-11-20T08:44:09;26.33;;;15.90;;
18999;SDS011;9633;50.980;13.850;2022-11-20T08:45:42;26.10;;;16.00;;
18999;SDS011;9633;50.980;13.850;2022-11-20T08:47:15;24.30;;;16.37;;
18999;SDS011;9633;50.980;13.850;2022-11-20T08:48:48;24.83;;;15.90;;
18999;SDS011;9633;50.980;13.850;2022-11-20T08:50:20;24.23;;;15.70;;
18999;SDS011;9633;50.980;13.850;2022-11-20T08:51:53;23.17;;;16.10;;
18999;SDS011;9633;50.980;13.850;2022-11-20T08:53:27;24.80;;;16.57;;
18999;SDS011;9633;50.980;13.850;2022-11-20T08:55:00;24.53;;;15.67;;
18999;SDS011;9633;50.980;13.850;2022-11-20T08:56:34;25.13;;;16.00;;
18999;SDS011;9633;50.980;13.850;2022-11-20T08:58:08;24.23;;;16.07;;
18999;SDS011;9633;50.980;13.850;2022-11-20T08:59:41;22.50;;;14.77;;
18999;SDS011;9633;50.980;13.850;2022-11-20T09:01:34;23.70;;;15.27;;
18999;SDS011;9633;50.980;13.850;2022-11-20T09:03:07;24.30;;;15.93;;
18999;SDS011;9633;50.980;13.850;2022-11-20T09:04:40;23.93;;;15.57;;
18999;SDS011;9633;50.980;13.850;2022-11-20T09:06:13;25.20;;;15.27;;
18999;SDS011;9633;50.980;13.850;2022-11-20T09:07:47;25.47;;;15.77;;
18999;SDS011;9633;50.980;13.850;2022-11-20T09:09:20;25.27;;;17.10;;
18999;SDS011;9633;50.980;13.850;2022-11-20T09:10:54;26.87;;;17.47;;
18999;SDS011;9633;50.980;13.850;2022-11-20T09:12:29;23.67;;;15.97;;
18999;SDS011;9633;50.980;13.850;2022-11-20T09:14:03;31.00;;;17.53;;
18999;SDS011;9633;50.980;13.850;2022-11-20T09:15:36;25.17;;;16.83;;